sensor_id;sensor_type;location;lat;lon;timestamp;P1;durP1;ratioP1;P2;durP2;ratioP2
20830;SDS011;10576;53.556;9.868;2023-04-22T00:00:24;7.10;;;4.35;;
20830;SDS011;10576;53.556;9.868;2023-04-22T00:02:50;6.07;;;4.18;;
20830;SDS011;10576;53.556;9.868;2023-04-22T00:05:16;6.37;;;4.20;;
20830;SDS011;10576;53.556;9.868;2023-04-22T00:07:42;5.00;;;4.15;;
20830;SDS011;10576;53.556;9.868;2023-04-22T00:10:09;7.90;;;4.00;;
20830;SDS011;10576;53.556;9.868;2023-04-22T00:12:35;5.95;;;4.13;;
20830;SDS011;10576;53.556;9.868;2023-04-22T00:15:01;4.93;;;3.90;;
20830;SDS011;10576;53.556;9.868;2023-04-22T00:17:27;5.00;;;4.03;;
20830;SDS011;10576;53.556;9.868;2023-04-22T00:19:53;5.05;;;4.20;;
20830;SDS011;10576;53.556;9.868;2023-04-22T00:22:20;8.70;;;4.13;;
20830;SDS011;10576;53.556;9.868;2023-04-22T00:24:45;8.17;;;3.80;;
20830;SDS011;10576;53.556;9.868;2023-04-22T00:27:11;4.60;;;3.90;;
20830;SDS011;10576;53.556;9.868;2023-04-22T00:29:37;5.90;;;3.90;;
20830;SDS011;10576;53.556;9.868;2023-04-22T00:32:03;6.00;;;4.13;;
20830;SDS011;10576;53.556;9.868;2023-04-22T00:34:29;5.03;;;4.00;;
20830;SDS011;10576;53.556;9.868;2023-04-22T00:36:54;6.97;;;3.85;;
20830;SDS011;10576;53.556;9.868;2023-04-22T00:39:21;7.70;;;4.30;;
20830;SDS011;10576;53.556;9.868;2023-04-22T00:41:46;5.63;;;4.10;;
20830;SDS011;10576;53.556;9.868;2023-04-22T00:44:13;6.30;;;4.10;;
20830;SDS011;10576;53.556;9.868;2023-04-22T00:46:39;8.30;;;4.37;;
20830;SDS011;10576;53.556;9.868;2023-04-22T00:49:05;4.82;;;4.32;;
20830;SDS011;10576;53.556;9.868;2023-04-22T00:51:31;5.18;;;4.18;;
20830;SDS011;10576;53.556;9.868;2023-04-22T00:53:57;6.20;;;4.10;;
20830;SDS011;10576;53.556;9.868;2023-04-22T00:56:25;6.22;;;4.57;;
20830;SDS011;10576;53.556;9.868;2023-04-22T00:58:52;5.57;;;4.35;;
20830;SDS011;10576;53.556;9.868;2023-04-22T01:01:19;4.72;;;4.18;;
20830;SDS011;10576;53.556;9.868;2023-04-22T01:03:46;4.85;;;4.35;;
20830;SDS011;10576;53.556;9.868;2023-04-22T01:06:13;7.43;;;4.32;;
20830;SDS011;10576;53.556;9.868;2023-04-22T01:08:40;6.33;;;4.60;;
20830;SDS011;10576;53.556;9.868;2023-04-22T01:11:06;5.22;;;4.50;;
20830;SDS011;10576;53.556;9.868;2023-04-22T01:13:32;5.43;;;4.30;;
20830;SDS011;10576;53.556;9.868;2023-04-22T01:15:59;6.82;;;4.53;;
20830;SDS011;10576;53.556;9.868;2023-04-22T01:18:26;6.90;;;4.80;;
20830;SDS011;10576;53.556;9.868;2023-04-22T01:20:52;5.95;;;4.45;;
20830;SDS011;10576;53.556;9.868;2023-04-22T01:23:18;7.43;;;4.77;;
20830;SDS011;10576;53.556;9.868;2023-04-22T01:25:45;5.90;;;4.80;;
20830;SDS011;10576;53.556;9.868;2023-04-22T01:28:12;6.38;;;4.65;;
20830;SDS011;10576;53.556;9.868;2023-04-22T01:30:38;7.53;;;4.80;;
20830;SDS011;10576;53.556;9.868;2023-04-22T01:33:05;5.60;;;4.45;;
20830;SDS011;10576;53.556;9.868;2023-04-22T01:35:31;6.45;;;5.00;;
20830;SDS011;10576;53.556;9.868;2023-04-22T01:38:01;6.45;;;4.60;;
20830;SDS011;10576;53.556;9.868;2023-04-22T01:40:29;6.80;;;4.93;;
20830;SDS011;10576;53.556;9.868;2023-04-22T01:42:56;8.20;;;5.20;;
20830;SDS011;10576;53.556;9.868;2023-04-22T01:45:26;6.40;;;4.93;;
20830;SDS011;10576;53.556;9.868;2023-04-22T01:47:52;7.80;;;4.78;;
20830;SDS011;10576;53.556;9.868;2023-04-22T01:50:18;8.52;;;4.80;;
20830;SDS011;10576;53.556;9.868;2023-04-22T01:52:44;6.85;;;5.10;;
20830;SDS011;10576;53.556;9.868;2023-04-22T01:55:10;6.30;;;4.77;;
20830;SDS011;10576;53.556;9.868;2023-04-22T01:57:35;5.47;;;4.80;;
20830;SDS011;10576;53.556;9.868;2023-04-22T02:00:01;7.05;;;5.25;;
20830;SDS011;10576;53.556;9.868;2023-04-22T02:02:29;6.70;;;5.00;;
20830;SDS011;10576;53.556;9.868;2023-04-22T02:04:55;6.05;;;5.00;;
20830;SDS011;10576;53.556;9.868;2023-04-22T02:07:21;6.57;;;4.87;;
20830;SDS011;10576;53.556;9.868;2023-04-22T02:09:48;7.45;;;5.20;;
20830;SDS011;10576;53.556;9.868;2023-04-22T02:12:14;7.75;;;5.13;;
20830;SDS011;10576;53.556;9.868;2023-04-22T02:14:40;8.70;;;5.30;;
20830;SDS011;10576;53.556;9.868;2023-04-22T02:17:06;7.27;;;5.27;;
20830;SDS011;10576;53.556;9.868;2023-04-22T02:19:31;6.63;;;5.53;;
20830;SDS011;10576;53.556;9.868;2023-04-22T02:21:57;6.88;;;5.28;;
20830;SDS011;10576;53.556;9.868;2023-04-22T02:24:23;6.15;;;5.13;;
20830;SDS011;10576;53.556;9.868;2023-04-22T02:26:48;6.63;;;5.43;;
20830;SDS011;10576;53.556;9.868;2023-04-22T02:29:14;6.82;;;5.13;;
20830;SDS011;10576;53.556;9.868;2023-04-22T02:31:43;7.90;;;5.72;;
20830;SDS011;10576;53.556;9.868;2023-04-22T02:34:08;7.43;;;5.40;;
20830;SDS011;10576;53.556;9.868;2023-04-22T02:36:34;7.80;;;5.68;;
20830;SDS011;10576;53.556;9.868;2023-04-22T02:39:00;7.37;;;5.73;;
20830;SDS011;10576;53.556;9.868;2023-04-22T02:41:27;6.80;;;5.43;;
20830;SDS011;10576;53.556;9.868;2023-04-22T02:43:53;8.15;;;5.47;;
20830;SDS011;10576;53.556;9.868;2023-04-22T02:46:19;7.70;;;5.60;;
20830;SDS011;10576;53.556;9.868;2023-04-22T02:48:44;6.90;;;5.50;;
20830;SDS011;10576;53.556;9.868;2023-04-22T02:51:10;6.85;;;5.70;;
20830;SDS011;10576;53.556;9.868;2023-04-22T02:53:36;7.70;;;5.65;;
20830;SDS011;10576;53.556;9.868;2023-04-22T02:56:01;11.20;;;5.93;;
20830;SDS011;10576;53.556;9.868;2023-04-22T02:58:27;7.70;;;5.63;;
20830;SDS011;10576;53.556;9.868;2023-04-22T03:00:53;7.63;;;5.90;;
20830;SDS011;10576;53.556;9.868;2023-04-22T03:03:21;7.82;;;5.63;;
20830;SDS011;10576;53.556;9.868;2023-04-22T03:05:46;7.47;;;5.77;;
20830;SDS011;10576;53.556;9.868;2023-04-22T03:08:12;7.43;;;6.30;;
20830;SDS011;10576;53.556;9.868;2023-04-22T03:10:39;6.63;;;5.80;;
20830;SDS011;10576;53.556;9.868;2023-04-22T03:13:04;7.17;;;5.90;;
20830;SDS011;10576;53.556;9.868;2023-04-22T03:15:30;8.70;;;6.30;;
20830;SDS011;10576;53.556;9.868;2023-04-22T03:17:56;6.73;;;6.10;;
20830;SDS011;10576;53.556;9.868;2023-04-22T03:20:21;9.82;;;6.45;;
20830;SDS011;10576;53.556;9.868;2023-04-22T03:22:47;9.40;;;6.00;;
20830;SDS011;10576;53.556;9.868;2023-04-22T03:25:13;8.35;;;6.20;;
20830;SDS011;10576;53.556;9.868;2023-04-22T03:27:39;6.50;;;5.90;;
20830;SDS011;10576;53.556;9.868;2023-04-22T03:30:05;7.10;;;6.10;;
20830;SDS011;10576;53.556;9.868;2023-04-22T03:32:31;7.05;;;6.32;;
20830;SDS011;10576;53.556;9.868;2023-04-22T03:34:57;7.40;;;6.47;;
20830;SDS011;10576;53.556;9.868;2023-04-22T03:37:22;9.50;;;6.30;;
20830;SDS011;10576;53.556;9.868;2023-04-22T03:39:48;9.93;;;6.67;;
20830;SDS011;10576;53.556;9.868;2023-04-22T03:42:14;10.40;;;6.77;;
20830;SDS011;10576;53.556;9.868;2023-04-22T03:44:39;9.03;;;6.40;;
20830;SDS011;10576;53.556;9.868;2023-04-22T03:47:05;7.97;;;6.53;;
20830;SDS011;10576;53.556;9.868;2023-04-22T03:49:31;7.22;;;6.40;;
20830;SDS011;10576;53.556;9.868;2023-04-22T03:51:57;8.20;;;6.50;;
20830;SDS011;10576;53.556;9.868;2023-04-22T03:54:23;8.48;;;6.70;;
20830;SDS011;10576;53.556;9.868;2023-04-22T03:56:49;7.43;;;6.20;;
20830;SDS011;10576;53.556;9.868;2023-04-22T03:59:16;8.55;;;6.45;;
20830;SDS011;10576;53.556;9.868;2023-04-22T04:01:42;8.00;;;6.50;;
20830;SDS011;10576;53.556;9.868;2023-04-22T04:04:09;7.90;;;6.47;;
20830;SDS011;10576;53.556;9.868;2023-04-22T04:06:35;7.07;;;6.20;;
20830;SDS011;10576;53.556;9.868;2023-04-22T04:09:01;8.07;;;6.80;;
20830;SDS011;10576;53.556;9.868;2023-04-22T04:11:27;8.55;;;6.75;;
20830;SDS011;10576;53.556;9.868;2023-04-22T04:13:53;7.93;;;7.13;;
20830;SDS011;10576;53.556;9.868;2023-04-22T04:16:19;9.53;;;6.70;;
20830;SDS011;10576;53.556;9.868;2023-04-22T04:18:44;8.27;;;7.10;;
20830;SDS011;10576;53.556;9.868;2023-04-22T04:21:13;7.32;;;6.55;;
20830;SDS011;10576;53.556;9.868;2023-04-22T04:23:39;8.60;;;7.20;;
20830;SDS011;10576;53.556;9.868;2023-04-22T04:26:04;8.17;;;7.13;;
20830;SDS011;10576;53.556;9.868;2023-04-22T04:28:30;8.97;;;7.07;;
20830;SDS011;10576;53.556;9.868;2023-04-22T04:30:57;10.13;;;7.63;;
20830;SDS011;10576;53.556;9.868;2023-04-22T04:33:23;9.13;;;7.03;;
20830;SDS011;10576;53.556;9.868;2023-04-22T04:35:49;8.90;;;7.15;;
20830;SDS011;10576;53.556;9.868;2023-04-22T04:38:16;8.75;;;7.55;;
20830;SDS011;10576;53.556;9.868;2023-04-22T04:40:42;7.93;;;7.13;;
20830;SDS011;10576;53.556;9.868;2023-04-22T04:43:09;9.48;;;7.45;;
20830;SDS011;10576;53.556;9.868;2023-04-22T04:45:37;9.33;;;7.70;;
20830;SDS011;10576;53.556;9.868;2023-04-22T04:48:03;8.50;;;7.00;;
20830;SDS011;10576;53.556;9.868;2023-04-22T04:50:31;7.82;;;7.00;;
20830;SDS011;10576;53.556;9.868;2023-04-22T04:52:57;9.40;;;7.40;;
20830;SDS011;10576;53.556;9.868;2023-04-22T04:55:23;9.30;;;6.95;;
20830;SDS011;10576;53.556;9.868;2023-04-22T04:57:48;9.88;;;7.80;;
20830;SDS011;10576;53.556;9.868;2023-04-22T05:00:14;9.70;;;7.60;;
20830;SDS011;10576;53.556;9.868;2023-04-22T05:02:40;12.47;;;7.57;;
20830;SDS011;10576;53.556;9.868;2023-04-22T05:05:06;12.38;;;8.10;;
20830;SDS011;10576;53.556;9.868;2023-04-22T05:07:32;8.68;;;7.10;;
20830;SDS011;10576;53.556;9.868;2023-04-22T05:09:58;9.07;;;7.10;;
20830;SDS011;10576;53.556;9.868;2023-04-22T05:12:24;9.18;;;7.47;;
20830;SDS011;10576;53.556;9.868;2023-04-22T05:14:50;10.43;;;7.80;;
20830;SDS011;10576;53.556;9.868;2023-04-22T05:17:17;9.53;;;7.70;;
20830;SDS011;10576;53.556;9.868;2023-04-22T05:19:43;11.95;;;7.72;;
20830;SDS011;10576;53.556;9.868;2023-04-22T05:22:09;8.65;;;7.30;;
20830;SDS011;10576;53.556;9.868;2023-04-22T05:24:34;8.57;;;7.65;;
20830;SDS011;10576;53.556;9.868;2023-04-22T05:27:00;8.63;;;7.38;;
20830;SDS011;10576;53.556;9.868;2023-04-22T05:29:26;8.55;;;7.45;;
20830;SDS011;10576;53.556;9.868;2023-04-22T05:31:52;8.48;;;7.57;;
20830;SDS011;10576;53.556;9.868;2023-04-22T05:34:18;11.68;;;8.10;;
20830;SDS011;10576;53.556;9.868;2023-04-22T05:36:44;10.10;;;7.63;;
20830;SDS011;10576;53.556;9.868;2023-04-22T05:39:09;8.88;;;7.85;;
20830;SDS011;10576;53.556;9.868;2023-04-22T05:41:35;8.95;;;7.70;;
20830;SDS011;10576;53.556;9.868;2023-04-22T05:44:00;9.85;;;7.70;;
20830;SDS011;10576;53.556;9.868;2023-04-22T05:46:28;8.53;;;7.60;;
20830;SDS011;10576;53.556;9.868;2023-04-22T05:48:55;8.13;;;7.30;;
20830;SDS011;10576;53.556;9.868;2023-04-22T05:51:21;9.35;;;7.53;;
20830;SDS011;10576;53.556;9.868;2023-04-22T05:53:47;9.40;;;7.45;;
20830;SDS011;10576;53.556;9.868;2023-04-22T05:56:14;8.60;;;7.50;;
20830;SDS011;10576;53.556;9.868;2023-04-22T05:58:40;9.53;;;7.90;;
20830;SDS011;10576;53.556;9.868;2023-04-22T06:01:06;9.35;;;7.60;;
20830;SDS011;10576;53.556;9.868;2023-04-22T06:03:31;9.98;;;7.82;;
20830;SDS011;10576;53.556;9.868;2023-04-22T06:05:57;9.90;;;7.75;;
20830;SDS011;10576;53.556;9.868;2023-04-22T06:08:24;10.35;;;8.13;;
20830;SDS011;10576;53.556;9.868;2023-04-22T06:10:50;8.48;;;7.60;;
20830;SDS011;10576;53.556;9.868;2023-04-22T06:13:15;9.30;;;7.95;;
20830;SDS011;10576;53.556;9.868;2023-04-22T06:15:41;9.10;;;7.82;;
20830;SDS011;10576;53.556;9.868;2023-04-22T06:18:06;9.68;;;8.20;;
20830;SDS011;10576;53.556;9.868;2023-04-22T06:20:32;9.95;;;8.02;;
20830;SDS011;10576;53.556;9.868;2023-04-22T06:22:59;10.98;;;8.15;;
20830;SDS011;10576;53.556;9.868;2023-04-22T06:25:26;10.10;;;7.85;;
20830;SDS011;10576;53.556;9.868;2023-04-22T06:27:51;9.40;;;8.35;;
20830;SDS011;10576;53.556;9.868;2023-04-22T06:30:17;10.18;;;8.00;;
20830;SDS011;10576;53.556;9.868;2023-04-22T06:32:43;10.23;;;8.05;;
20830;SDS011;10576;53.556;9.868;2023-04-22T06:35:08;9.75;;;8.20;;
20830;SDS011;10576;53.556;9.868;2023-04-22T06:37:34;9.18;;;8.27;;
20830;SDS011;10576;53.556;9.868;2023-04-22T06:40:00;8.80;;;7.90;;
20830;SDS011;10576;53.556;9.868;2023-04-22T06:42:26;9.85;;;8.57;;
20830;SDS011;10576;53.556;9.868;2023-04-22T06:44:52;9.18;;;7.80;;
20830;SDS011;10576;53.556;9.868;2023-04-22T06:47:18;9.60;;;8.20;;
20830;SDS011;10576;53.556;9.868;2023-04-22T06:49:44;11.07;;;8.30;;
20830;SDS011;10576;53.556;9.868;2023-04-22T06:52:09;11.25;;;8.40;;
20830;SDS011;10576;53.556;9.868;2023-04-22T06:54:35;11.98;;;8.00;;
20830;SDS011;10576;53.556;9.868;2023-04-22T06:57:02;9.43;;;8.38;;
20830;SDS011;10576;53.556;9.868;2023-04-22T06:59:28;9.73;;;8.20;;
20830;SDS011;10576;53.556;9.868;2023-04-22T07:01:53;10.00;;;8.17;;
20830;SDS011;10576;53.556;9.868;2023-04-22T07:04:19;8.97;;;8.07;;
20830;SDS011;10576;53.556;9.868;2023-04-22T07:06:46;9.60;;;8.30;;
20830;SDS011;10576;53.556;9.868;2023-04-22T07:09:12;10.90;;;8.07;;
20830;SDS011;10576;53.556;9.868;2023-04-22T07:11:38;10.77;;;8.47;;
20830;SDS011;10576;53.556;9.868;2023-04-22T07:14:03;9.13;;;8.30;;
20830;SDS011;10576;53.556;9.868;2023-04-22T07:16:29;8.97;;;7.90;;
20830;SDS011;10576;53.556;9.868;2023-04-22T07:18:55;9.07;;;7.90;;
20830;SDS011;10576;53.556;9.868;2023-04-22T07:21:21;9.68;;;8.30;;
20830;SDS011;10576;53.556;9.868;2023-04-22T07:23:46;11.00;;;8.43;;
20830;SDS011;10576;53.556;9.868;2023-04-22T07:29:34;10.85;;;8.52;;
20830;SDS011;10576;53.556;9.868;2023-04-22T07:32:00;11.05;;;8.45;;
20830;SDS011;10576;53.556;9.868;2023-04-22T07:34:26;10.02;;;8.60;;
20830;SDS011;10576;53.556;9.868;2023-04-22T07:36:51;11.13;;;8.75;;
20830;SDS011;10576;53.556;9.868;2023-04-22T07:39:17;9.65;;;8.30;;
20830;SDS011;10576;53.556;9.868;2023-04-22T07:41:44;10.45;;;8.55;;
20830;SDS011;10576;53.556;9.868;2023-04-22T07:44:10;9.30;;;8.38;;
20830;SDS011;10576;53.556;9.868;2023-04-22T07:46:41;10.43;;;8.60;;
20830;SDS011;10576;53.556;9.868;2023-04-22T07:49:07;12.40;;;8.45;;
20830;SDS011;10576;53.556;9.868;2023-04-22T07:51:33;11.20;;;8.77;;
20830;SDS011;10576;53.556;9.868;2023-04-22T07:53:59;10.02;;;8.68;;
20830;SDS011;10576;53.556;9.868;2023-04-22T07:56:25;13.87;;;9.07;;
20830;SDS011;10576;53.556;9.868;2023-04-22T07:58:50;12.82;;;8.43;;
20830;SDS011;10576;53.556;9.868;2023-04-22T08:01:16;10.40;;;8.65;;
20830;SDS011;10576;53.556;9.868;2023-04-22T08:03:41;9.65;;;8.43;;
20830;SDS011;10576;53.556;9.868;2023-04-22T08:06:08;11.13;;;8.23;;
20830;SDS011;10576;53.556;9.868;2023-04-22T08:08:34;11.95;;;8.38;;
20830;SDS011;10576;53.556;9.868;2023-04-22T08:10:59;10.37;;;8.30;;
20830;SDS011;10576;53.556;9.868;2023-04-22T08:13:25;10.05;;;8.48;;
20830;SDS011;10576;53.556;9.868;2023-04-22T08:15:51;10.40;;;8.55;;
20830;SDS011;10576;53.556;9.868;2023-04-22T08:18:16;9.17;;;8.17;;
20830;SDS011;10576;53.556;9.868;2023-04-22T08:20:43;9.30;;;7.93;;
20830;SDS011;10576;53.556;9.868;2023-04-22T08:23:10;9.82;;;8.10;;
20830;SDS011;10576;53.556;9.868;2023-04-22T08:25:36;8.88;;;7.97;;
20830;SDS011;10576;53.556;9.868;2023-04-22T08:28:01;10.73;;;7.90;;
20830;SDS011;10576;53.556;9.868;2023-04-22T08:30:27;10.18;;;8.35;;
20830;SDS011;10576;53.556;9.868;2023-04-22T08:32:53;9.38;;;7.70;;
20830;SDS011;10576;53.556;9.868;2023-04-22T08:35:19;8.83;;;7.80;;
20830;SDS011;10576;53.556;9.868;2023-04-22T08:37:44;12.63;;;8.40;;
20830;SDS011;10576;53.556;9.868;2023-04-22T08:40:10;9.20;;;7.40;;
20830;SDS011;10576;53.556;9.868;2023-04-22T08:42:36;9.17;;;8.20;;
20830;SDS011;10576;53.556;9.868;2023-04-22T08:45:02;9.43;;;8.43;;
20830;SDS011;10576;53.556;9.868;2023-04-22T08:47:29;10.57;;;8.25;;
20830;SDS011;10576;53.556;9.868;2023-04-22T08:50:00;10.80;;;8.33;;
20830;SDS011;10576;53.556;9.868;2023-04-22T08:52:28;11.40;;;7.97;;
20830;SDS011;10576;53.556;9.868;2023-04-22T08:54:55;9.45;;;7.88;;
20830;SDS011;10576;53.556;9.868;2023-04-22T08:57:21;11.75;;;8.25;;
20830;SDS011;10576;53.556;9.868;2023-04-22T08:59:48;8.40;;;7.60;;
20830;SDS011;10576;53.556;9.868;2023-04-22T09:02:20;8.95;;;7.55;;
20830;SDS011;10576;53.556;9.868;2023-04-22T09:51:55;10.55;;;7.53;;
20830;SDS011;10576;53.556;9.868;2023-04-22T09:54:24;8.73;;;6.78;;
20830;SDS011;10576;53.556;9.868;2023-04-22T09:56:50;7.63;;;6.93;;
20830;SDS011;10576;53.556;9.868;2023-04-22T09:59:21;8.05;;;7.25;;
20830;SDS011;10576;53.556;9.868;2023-04-22T10:01:47;8.52;;;7.07;;
20830;SDS011;10576;53.556;9.868;2023-04-22T10:04:14;7.68;;;6.88;;
20830;SDS011;10576;53.556;9.868;2023-04-22T10:06:45;8.30;;;6.85;;
20830;SDS011;10576;53.556;9.868;2023-04-22T10:09:11;9.35;;;7.10;;
20830;SDS011;10576;53.556;9.868;2023-04-22T10:11:38;10.65;;;6.97;;
20830;SDS011;10576;53.556;9.868;2023-04-22T10:14:05;9.40;;;7.68;;
20830;SDS011;10576;53.556;9.868;2023-04-22T10:16:34;7.93;;;7.15;;
20830;SDS011;10576;53.556;9.868;2023-04-22T10:19:02;8.30;;;6.90;;
20830;SDS011;10576;53.556;9.868;2023-04-22T10:21:30;7.43;;;6.72;;
20830;SDS011;10576;53.556;9.868;2023-04-22T10:23:57;9.20;;;7.50;;
20830;SDS011;10576;53.556;9.868;2023-04-22T10:26:57;8.07;;;7.28;;
20830;SDS011;10576;53.556;9.868;2023-04-22T10:29:24;8.73;;;7.15;;
20830;SDS011;10576;53.556;9.868;2023-04-22T10:31:54;8.32;;;7.40;;
20830;SDS011;10576;53.556;9.868;2023-04-22T10:34:27;7.25;;;6.53;;
20830;SDS011;10576;53.556;9.868;2023-04-22T10:36:59;8.35;;;6.60;;
20830;SDS011;10576;53.556;9.868;2023-04-22T10:39:29;7.53;;;6.30;;
20830;SDS011;10576;53.556;9.868;2023-04-22T10:44:27;7.70;;;6.28;;
20830;SDS011;10576;53.556;9.868;2023-04-22T10:46:55;7.28;;;6.30;;
20830;SDS011;10576;53.556;9.868;2023-04-22T10:49:23;7.07;;;6.38;;
20830;SDS011;10576;53.556;9.868;2023-04-22T10:51:57;7.40;;;6.10;;
20830;SDS011;10576;53.556;9.868;2023-04-22T10:57:05;7.50;;;6.05;;
20830;SDS011;10576;53.556;9.868;2023-04-22T10:59:35;8.18;;;5.70;;
20830;SDS011;10576;53.556;9.868;2023-04-22T11:02:10;7.72;;;5.88;;
20830;SDS011;10576;53.556;9.868;2023-04-22T11:04:38;6.43;;;5.55;;
20830;SDS011;10576;53.556;9.868;2023-04-22T11:09:48;7.47;;;5.88;;
20830;SDS011;10576;53.556;9.868;2023-04-22T11:15:06;7.45;;;5.60;;
20830;SDS011;10576;53.556;9.868;2023-04-22T11:17:35;7.10;;;5.60;;
20830;SDS011;10576;53.556;9.868;2023-04-22T11:20:02;6.80;;;5.68;;
20830;SDS011;10576;53.556;9.868;2023-04-22T11:22:33;6.57;;;5.35;;
20830;SDS011;10576;53.556;9.868;2023-04-22T11:25:00;7.30;;;5.78;;
20830;SDS011;10576;53.556;9.868;2023-04-22T11:27:26;6.03;;;5.53;;
20830;SDS011;10576;53.556;9.868;2023-04-22T11:30:26;7.05;;;5.53;;
20830;SDS011;10576;53.556;9.868;2023-04-22T11:32:49;6.18;;;5.57;;
20830;SDS011;10576;53.556;9.868;2023-04-22T11:37:54;6.77;;;5.43;;
20830;SDS011;10576;53.556;9.868;2023-04-22T11:40:23;7.35;;;5.82;;
20830;SDS011;10576;53.556;9.868;2023-04-22T11:42:52;6.53;;;5.03;;
20830;SDS011;10576;53.556;9.868;2023-04-22T11:45:19;6.75;;;5.05;;
20830;SDS011;10576;53.556;9.868;2023-04-22T11:47:45;6.03;;;5.32;;
20830;SDS011;10576;53.556;9.868;2023-04-22T11:50:12;7.40;;;5.45;;
20830;SDS011;10576;53.556;9.868;2023-04-22T11:57:57;5.60;;;5.10;;
20830;SDS011;10576;53.556;9.868;2023-04-22T12:00:29;6.68;;;5.10;;
20830;SDS011;10576;53.556;9.868;2023-04-22T12:03:01;7.13;;;5.28;;
20830;SDS011;10576;53.556;9.868;2023-04-22T12:05:32;7.32;;;5.60;;
20830;SDS011;10576;53.556;9.868;2023-04-22T12:08:00;6.82;;;5.45;;
20830;SDS011;10576;53.556;9.868;2023-04-22T12:10:27;5.80;;;5.22;;
20830;SDS011;10576;53.556;9.868;2023-04-22T12:12:54;6.80;;;5.00;;
20830;SDS011;10576;53.556;9.868;2023-04-22T12:15:20;6.50;;;5.05;;
20830;SDS011;10576;53.556;9.868;2023-04-22T12:17:45;7.67;;;5.50;;
20830;SDS011;10576;53.556;9.868;2023-04-22T12:20:14;5.70;;;5.00;;
20830;SDS011;10576;53.556;9.868;2023-04-22T12:22:40;5.55;;;4.97;;
20830;SDS011;10576;53.556;9.868;2023-04-22T12:25:05;8.10;;;5.00;;
20830;SDS011;10576;53.556;9.868;2023-04-22T12:27:33;5.88;;;5.38;;
20830;SDS011;10576;53.556;9.868;2023-04-22T12:29:59;8.60;;;5.53;;
20830;SDS011;10576;53.556;9.868;2023-04-22T12:32:25;8.63;;;5.40;;
20830;SDS011;10576;53.556;9.868;2023-04-22T12:34:51;5.93;;;5.17;;
20830;SDS011;10576;53.556;9.868;2023-04-22T12:37:17;6.45;;;5.32;;
20830;SDS011;10576;53.556;9.868;2023-04-22T12:39:43;5.72;;;5.07;;
20830;SDS011;10576;53.556;9.868;2023-04-22T12:42:09;6.05;;;4.97;;
20830;SDS011;10576;53.556;9.868;2023-04-22T12:44:35;7.20;;;5.00;;
20830;SDS011;10576;53.556;9.868;2023-04-22T12:47:01;6.18;;;4.60;;
20830;SDS011;10576;53.556;9.868;2023-04-22T12:49:27;7.53;;;4.60;;
20830;SDS011;10576;53.556;9.868;2023-04-22T12:51:53;5.13;;;4.63;;
20830;SDS011;10576;53.556;9.868;2023-04-22T12:54:19;4.93;;;4.40;;
20830;SDS011;10576;53.556;9.868;2023-04-22T12:56:45;4.22;;;3.83;;
20830;SDS011;10576;53.556;9.868;2023-04-22T12:59:11;3.50;;;3.20;;
20830;SDS011;10576;53.556;9.868;2023-04-22T13:01:37;3.00;;;2.80;;
20830;SDS011;10576;53.556;9.868;2023-04-22T13:04:03;2.60;;;2.40;;
20830;SDS011;10576;53.556;9.868;2023-04-22T13:06:29;2.50;;;2.30;;
20830;SDS011;10576;53.556;9.868;2023-04-22T13:08:56;5.03;;;3.50;;
20830;SDS011;10576;53.556;9.868;2023-04-22T13:11:22;6.03;;;3.90;;
20830;SDS011;10576;53.556;9.868;2023-04-22T13:13:48;5.32;;;3.60;;
20830;SDS011;10576;53.556;9.868;2023-04-22T13:16:14;5.45;;;3.58;;
20830;SDS011;10576;53.556;9.868;2023-04-22T13:18:40;4.65;;;3.50;;
20830;SDS011;10576;53.556;9.868;2023-04-22T13:21:06;5.30;;;3.78;;
20830;SDS011;10576;53.556;9.868;2023-04-22T13:23:32;5.20;;;3.20;;
20830;SDS011;10576;53.556;9.868;2023-04-22T13:25:58;4.22;;;3.30;;
20830;SDS011;10576;53.556;9.868;2023-04-22T13:28:23;4.70;;;3.80;;
20830;SDS011;10576;53.556;9.868;2023-04-22T13:30:49;4.05;;;3.65;;
20830;SDS011;10576;53.556;9.868;2023-04-22T13:33:15;6.97;;;4.07;;
20830;SDS011;10576;53.556;9.868;2023-04-22T13:35:41;4.30;;;3.83;;
20830;SDS011;10576;53.556;9.868;2023-04-22T13:38:07;4.87;;;3.27;;
20830;SDS011;10576;53.556;9.868;2023-04-22T13:40:33;5.80;;;3.47;;
20830;SDS011;10576;53.556;9.868;2023-04-22T13:42:59;5.13;;;3.30;;
20830;SDS011;10576;53.556;9.868;2023-04-22T13:45:25;3.60;;;3.30;;
20830;SDS011;10576;53.556;9.868;2023-04-22T13:47:52;7.43;;;3.85;;
20830;SDS011;10576;53.556;9.868;2023-04-22T13:50:18;6.20;;;3.67;;
20830;SDS011;10576;53.556;9.868;2023-04-22T13:52:44;4.43;;;3.33;;
20830;SDS011;10576;53.556;9.868;2023-04-22T13:55:10;3.75;;;3.10;;
20830;SDS011;10576;53.556;9.868;2023-04-22T13:57:35;3.95;;;3.30;;
20830;SDS011;10576;53.556;9.868;2023-04-22T14:00:01;4.80;;;3.67;;
20830;SDS011;10576;53.556;9.868;2023-04-22T14:02:27;3.77;;;3.20;;
20830;SDS011;10576;53.556;9.868;2023-04-22T14:04:53;3.77;;;3.27;;
20830;SDS011;10576;53.556;9.868;2023-04-22T14:07:19;4.82;;;3.60;;
20830;SDS011;10576;53.556;9.868;2023-04-22T14:09:45;4.45;;;3.67;;
20830;SDS011;10576;53.556;9.868;2023-04-22T14:12:11;4.07;;;3.67;;
20830;SDS011;10576;53.556;9.868;2023-04-22T14:14:37;4.90;;;3.80;;
20830;SDS011;10576;53.556;9.868;2023-04-22T14:17:03;3.95;;;3.65;;
20830;SDS011;10576;53.556;9.868;2023-04-22T14:19:29;7.13;;;4.30;;
20830;SDS011;10576;53.556;9.868;2023-04-22T14:21:55;5.18;;;4.03;;
20830;SDS011;10576;53.556;9.868;2023-04-22T14:24:21;4.78;;;3.80;;
20830;SDS011;10576;53.556;9.868;2023-04-22T14:26:48;5.72;;;3.75;;
20830;SDS011;10576;53.556;9.868;2023-04-22T14:29:16;4.63;;;4.20;;
20830;SDS011;10576;53.556;9.868;2023-04-22T14:31:41;4.30;;;3.72;;
20830;SDS011;10576;53.556;9.868;2023-04-22T14:34:07;5.55;;;4.00;;
20830;SDS011;10576;53.556;9.868;2023-04-22T14:36:33;5.53;;;4.20;;
20830;SDS011;10576;53.556;9.868;2023-04-22T14:38:59;4.55;;;3.65;;
20830;SDS011;10576;53.556;9.868;2023-04-22T14:41:25;4.68;;;3.72;;
20830;SDS011;10576;53.556;9.868;2023-04-22T14:43:51;4.45;;;3.85;;
20830;SDS011;10576;53.556;9.868;2023-04-22T14:46:16;5.18;;;3.95;;
20830;SDS011;10576;53.556;9.868;2023-04-22T14:48:42;4.07;;;3.67;;
20830;SDS011;10576;53.556;9.868;2023-04-22T14:51:08;4.93;;;3.70;;
20830;SDS011;10576;53.556;9.868;2023-04-22T14:53:35;5.20;;;4.10;;
20830;SDS011;10576;53.556;9.868;2023-04-22T14:56:00;4.47;;;4.07;;
20830;SDS011;10576;53.556;9.868;2023-04-22T14:58:26;5.65;;;3.78;;
20830;SDS011;10576;53.556;9.868;2023-04-22T15:00:55;6.20;;;3.95;;
20830;SDS011;10576;53.556;9.868;2023-04-22T15:03:22;4.43;;;3.90;;
20830;SDS011;10576;53.556;9.868;2023-04-22T15:05:48;4.10;;;3.70;;
20830;SDS011;10576;53.556;9.868;2023-04-22T15:08:14;6.87;;;3.90;;
20830;SDS011;10576;53.556;9.868;2023-04-22T15:10:40;4.05;;;3.65;;
20830;SDS011;10576;53.556;9.868;2023-04-22T15:13:07;4.63;;;3.97;;
20830;SDS011;10576;53.556;9.868;2023-04-22T15:15:32;5.32;;;4.03;;
20830;SDS011;10576;53.556;9.868;2023-04-22T15:17:58;4.10;;;3.70;;
20830;SDS011;10576;53.556;9.868;2023-04-22T15:20:23;8.10;;;3.70;;
20830;SDS011;10576;53.556;9.868;2023-04-22T15:22:49;4.70;;;4.00;;
20830;SDS011;10576;53.556;9.868;2023-04-22T15:25:15;4.78;;;3.95;;
20830;SDS011;10576;53.556;9.868;2023-04-22T15:27:42;6.22;;;3.90;;
20830;SDS011;10576;53.556;9.868;2023-04-22T15:30:07;5.40;;;3.85;;
20830;SDS011;10576;53.556;9.868;2023-04-22T15:32:35;4.50;;;3.90;;
20830;SDS011;10576;53.556;9.868;2023-04-22T15:35:03;6.75;;;3.78;;
20830;SDS011;10576;53.556;9.868;2023-04-22T15:37:30;5.27;;;3.73;;
20830;SDS011;10576;53.556;9.868;2023-04-22T15:39:56;4.37;;;3.97;;
20830;SDS011;10576;53.556;9.868;2023-04-22T15:42:22;6.63;;;3.83;;
20830;SDS011;10576;53.556;9.868;2023-04-22T15:44:48;5.57;;;4.10;;
20830;SDS011;10576;53.556;9.868;2023-04-22T15:47:14;3.80;;;3.50;;
20830;SDS011;10576;53.556;9.868;2023-04-22T15:49:41;4.20;;;3.70;;